sensor_id;sensor_type;location;lat;lon;timestamp;pressure;altitude;pressure_sealevel;temperature;humidity
48606;BME280;8482;54.396;18.590;2023-02-12T00:01:11;103016.91;;;4.83;65.71
48606;BME280;8482;54.396;18.590;2023-02-12T00:03:38;103011.63;;;4.85;66.15
48606;BME280;8482;54.396;18.590;2023-02-12T00:06:06;103024.78;;;4.83;65.86
48606;BME280;8482;54.396;18.590;2023-02-12T00:08:33;103023.91;;;4.84;66.76
48606;BME280;8482;54.396;18.590;2023-02-12T00:10:59;103030.91;;;4.85;66.80
48606;BME280;8482;54.396;18.590;2023-02-12T00:13:31;103038.78;;;4.85;66.36
48606;BME280;8482;54.396;18.590;2023-02-12T00:15:57;103036.16;;;4.85;66.47
48606;BME280;8482;54.396;18.590;2023-02-12T00:18:23;103033.53;;;4.85;66.47
48606;BME280;8482;54.396;18.590;2023-02-12T00:20:48;103028.28;;;4.85;66.66
48606;BME280;8482;54.396;18.590;2023-02-12T00:23:14;103037.06;;;4.84;66.70
48606;BME280;8482;54.396;18.590;2023-02-12T00:25:41;103034.41;;;4.84;66.10
48606;BME280;8482;54.396;18.590;2023-02-12T00:28:07;103036.19;;;4.84;66.51
48606;BME280;8482;54.396;18.590;2023-02-12T00:30:34;103047.59;;;4.83;66.90
48606;BME280;8482;54.396;18.590;2023-02-12T00:33:00;103045.84;;;4.83;66.30
48606;BME280;8482;54.396;18.590;2023-02-12T00:35:26;103052.81;;;4.84;66.55
48606;BME280;8482;54.396;18.590;2023-02-12T00:37:51;103052.03;;;4.82;66.07
48606;BME280;8482;54.396;18.590;2023-02-12T00:40:17;103058.16;;;4.81;66.34
48606;BME280;8482;54.396;18.590;2023-02-12T00:42:43;103056.44;;;4.80;66.24
48606;BME280;8482;54.396;18.590;2023-02-12T00:45:09;103067.81;;;4.81;66.36
48606;BME280;8482;54.396;18.590;2023-02-12T00:47:35;103063.44;;;4.81;66.58
48606;BME280;8482;54.396;18.590;2023-02-12T00:50:01;103073.09;;;4.79;66.44
48606;BME280;8482;54.396;18.590;2023-02-12T00:52:26;103078.31;;;4.81;65.74
48606;BME280;8482;54.396;18.590;2023-02-12T00:54:52;103068.72;;;4.78;65.17
48606;BME280;8482;54.396;18.590;2023-02-12T00:57:18;103080.09;;;4.79;65.71
48606;BME280;8482;54.396;18.590;2023-02-12T00:59:44;103070.50;;;4.76;65.82
48606;BME280;8482;54.396;18.590;2023-02-12T01:02:10;103075.78;;;4.76;65.35
48606;BME280;8482;54.396;18.590;2023-02-12T01:04:35;103071.41;;;4.75;65.03
48606;BME280;8482;54.396;18.590;2023-02-12T01:07:01;103072.34;;;4.72;64.95
48606;BME280;8482;54.396;18.590;2023-02-12T01:09:27;103068.00;;;4.68;65.17
48606;BME280;8482;54.396;18.590;2023-02-12T01:11:53;103086.38;;;4.70;64.99
48606;BME280;8482;54.396;18.590;2023-02-12T01:14:19;103087.31;;;4.69;64.79
48606;BME280;8482;54.396;18.590;2023-02-12T01:16:44;103096.13;;;4.65;65.04
48606;BME280;8482;54.396;18.590;2023-02-12T01:19:11;103097.00;;;4.64;64.87
48606;BME280;8482;54.396;18.590;2023-02-12T01:21:37;103085.66;;;4.62;64.74
48606;BME280;8482;54.396;18.590;2023-02-12T01:24:03;103089.22;;;4.59;65.25
48606;BME280;8482;54.396;18.590;2023-02-12T01:26:30;103096.22;;;4.58;64.80
48606;BME280;8482;54.396;18.590;2023-02-12T01:29:02;103091.03;;;4.55;64.60
48606;BME280;8482;54.396;18.590;2023-02-12T01:31:40;103097.09;;;4.57;64.10
48606;BME280;8482;54.396;18.590;2023-02-12T01:34:08;103107.66;;;4.56;63.76
48606;BME280;8482;54.396;18.590;2023-02-12T01:36:34;103105.91;;;4.55;63.89
48606;BME280;8482;54.396;18.590;2023-02-12T01:39:02;103102.44;;;4.53;63.41
48606;BME280;8482;54.396;18.590;2023-02-12T01:41:39;103114.72;;;4.52;64.43
48606;BME280;8482;54.396;18.590;2023-02-12T01:46:34;103127.00;;;4.50;64.20
48606;BME280;8482;54.396;18.590;2023-02-12T01:49:04;103129.72;;;4.45;64.61
48606;BME280;8482;54.396;18.590;2023-02-12T01:51:32;103137.56;;;4.49;65.13
48606;BME280;8482;54.396;18.590;2023-02-12T01:54:04;103127.06;;;4.47;64.74
48606;BME280;8482;54.396;18.590;2023-02-12T01:56:33;103131.47;;;4.45;64.96
48606;BME280;8482;54.396;18.590;2023-02-12T01:59:00;103135.84;;;4.44;65.61
48606;BME280;8482;54.396;18.590;2023-02-12T02:01:30;103138.53;;;4.43;65.23
48606;BME280;8482;54.396;18.590;2023-02-12T02:04:09;103136.78;;;4.42;65.49
48606;BME280;8482;54.396;18.590;2023-02-12T02:07:16;103136.81;;;4.39;65.26
48606;BME280;8482;54.396;18.590;2023-02-12T02:09:43;103134.19;;;4.37;65.47
48606;BME280;8482;54.396;18.590;2023-02-12T02:12:09;103137.75;;;4.36;65.73
48606;BME280;8482;54.396;18.590;2023-02-12T02:14:57;103142.16;;;4.33;65.85
48606;BME280;8482;54.396;18.590;2023-02-12T02:23:24;103149.28;;;4.24;66.34
48606;BME280;8482;54.396;18.590;2023-02-12T02:31:55;103151.16;;;4.14;66.34
48606;BME280;8482;54.396;18.590;2023-02-12T02:39:55;103153.97;;;3.99;66.46
48606;BME280;8482;54.396;18.590;2023-02-12T02:42:43;103158.44;;;3.92;67.05
48606;BME280;8482;54.396;18.590;2023-02-12T02:45:18;103161.13;;;3.89;66.88
48606;BME280;8482;54.396;18.590;2023-02-12T02:48:03;103150.69;;;3.83;67.39
48606;BME280;8482;54.396;18.590;2023-02-12T02:50:34;103153.31;;;3.80;67.48
48606;BME280;8482;54.396;18.590;2023-02-12T02:53:12;103161.28;;;3.74;67.33
48606;BME280;8482;54.396;18.590;2023-02-12T02:55:51;103167.47;;;3.68;67.56
48606;BME280;8482;54.396;18.590;2023-02-12T02:58:50;103171.00;;;3.67;67.34
48606;BME280;8482;54.396;18.590;2023-02-12T03:01:36;103174.53;;;3.63;67.68
48606;BME280;8482;54.396;18.590;2023-02-12T03:04:29;103172.81;;;3.59;67.59
48606;BME280;8482;54.396;18.590;2023-02-12T03:07:05;103175.47;;;3.57;67.27
48606;BME280;8482;54.396;18.590;2023-02-12T03:09:54;103193.03;;;3.50;67.68
48606;BME280;8482;54.396;18.590;2023-02-12T03:13:00;103198.31;;;3.44;68.01
48606;BME280;8482;54.396;18.590;2023-02-12T03:15:59;103202.78;;;3.36;68.16
48606;BME280;8482;54.396;18.590;2023-02-12T03:18:43;103208.09;;;3.30;68.09
48606;BME280;8482;54.396;18.590;2023-02-12T03:21:17;103204.59;;;3.26;68.40
48606;BME280;8482;54.396;18.590;2023-02-12T03:24:13;103210.78;;;3.22;68.60
48606;BME280;8482;54.396;18.590;2023-02-12T03:26:58;103222.19;;;3.16;68.21
48606;BME280;8482;54.396;18.590;2023-02-12T03:29:27;103212.59;;;3.12;68.54
48606;BME280;8482;54.396;18.590;2023-02-12T03:34:52;103228.41;;;3.03;68.81
48606;BME280;8482;54.396;18.590;2023-02-12T03:37:42;103238.91;;;2.98;68.67
48606;BME280;8482;54.396;18.590;2023-02-12T03:40:34;103230.22;;;2.91;69.04
48606;BME280;8482;54.396;18.590;2023-02-12T03:43:29;103238.97;;;2.92;69.26
48606;BME280;8482;54.396;18.590;2023-02-12T03:46:25;103246.84;;;2.92;69.29
48606;BME280;8482;54.396;18.590;2023-02-12T03:49:20;103246.88;;;2.87;69.00
48606;BME280;8482;54.396;18.590;2023-02-12T03:51:49;103252.97;;;2.85;68.95
48606;BME280;8482;54.396;18.590;2023-02-12T03:54:19;103258.25;;;2.82;69.26
48606;BME280;8482;54.396;18.590;2023-02-12T03:56:58;103246.03;;;2.81;69.05
48606;BME280;8482;54.396;18.590;2023-02-12T03:59:27;103245.19;;;2.77;69.26
48606;BME280;8482;54.396;18.590;2023-02-12T04:01:57;103247.81;;;2.77;69.63
48606;BME280;8482;54.396;18.590;2023-02-12T04:04:25;103258.31;;;2.74;69.54
48606;BME280;8482;54.396;18.590;2023-02-12T04:06:52;103263.53;;;2.72;69.46
48606;BME280;8482;54.396;18.590;2023-02-12T04:09:21;103267.94;;;2.72;69.83
48606;BME280;8482;54.396;18.590;2023-02-12T04:14:57;103274.91;;;2.70;69.91
48606;BME280;8482;54.396;18.590;2023-02-12T04:18:08;103270.53;;;2.72;69.79
48606;BME280;8482;54.396;18.590;2023-02-12T04:24:02;103265.28;;;2.75;69.89
48606;BME280;8482;54.396;18.590;2023-02-12T04:31:49;103267.03;;;2.74;70.12
48606;BME280;8482;54.396;18.590;2023-02-12T04:34:38;103272.28;;;2.73;69.96
48606;BME280;8482;54.396;18.590;2023-02-12T04:37:16;103281.06;;;2.70;69.74
48606;BME280;8482;54.396;18.590;2023-02-12T04:39:45;103281.94;;;2.69;69.47
48606;BME280;8482;54.396;18.590;2023-02-12T04:42:11;103288.91;;;2.66;69.77
48606;BME280;8482;54.396;18.590;2023-02-12T04:44:41;103289.81;;;2.62;69.68
48606;BME280;8482;54.396;18.590;2023-02-12T04:47:13;103285.47;;;2.57;70.23
48606;BME280;8482;54.396;18.590;2023-02-12T04:49:39;103291.59;;;2.56;70.31
48606;BME280;8482;54.396;18.590;2023-02-12T04:52:06;103290.72;;;2.54;69.98
48606;BME280;8482;54.396;18.590;2023-02-12T04:54:32;103285.50;;;2.51;70.19
48606;BME280;8482;54.396;18.590;2023-02-12T04:56:58;103287.22;;;2.52;70.61
48606;BME280;8482;54.396;18.590;2023-02-12T04:59:24;103293.34;;;2.50;70.25
48606;BME280;8482;54.396;18.590;2023-02-12T05:01:50;103300.34;;;2.48;70.66
48606;BME280;8482;54.396;18.590;2023-02-12T05:04:17;103297.75;;;2.46;70.53
48606;BME280;8482;54.396;18.590;2023-02-12T05:06:45;103289.00;;;2.44;70.82
48606;BME280;8482;54.396;18.590;2023-02-12T05:09:18;103287.25;;;2.46;70.55
48606;BME280;8482;54.396;18.590;2023-02-12T05:11:45;103282.03;;;2.46;70.24
48606;BME280;8482;54.396;18.590;2023-02-12T05:14:11;103291.66;;;2.42;70.48
48606;BME280;8482;54.396;18.590;2023-02-12T05:16:37;103290.75;;;2.42;70.46
48606;BME280;8482;54.396;18.590;2023-02-12T05:19:03;103295.16;;;2.41;70.56
48606;BME280;8482;54.396;18.590;2023-02-12T05:21:29;103296.91;;;2.39;70.87
48606;BME280;8482;54.396;18.590;2023-02-12T05:23:55;103295.16;;;2.35;70.87
48606;BME280;8482;54.396;18.590;2023-02-12T05:26:21;103287.28;;;2.35;71.06
48606;BME280;8482;54.396;18.590;2023-02-12T05:28:47;103295.16;;;2.32;70.51
48606;BME280;8482;54.396;18.590;2023-02-12T05:31:17;103296.94;;;2.30;70.85
48606;BME280;8482;54.396;18.590;2023-02-12T05:33:45;103293.44;;;2.28;71.34
48606;BME280;8482;54.396;18.590;2023-02-12T05:36:16;103296.03;;;2.26;71.05
48606;BME280;8482;54.396;18.590;2023-02-12T05:38:42;103295.19;;;2.29;71.21
48606;BME280;8482;54.396;18.590;2023-02-12T05:41:17;103300.44;;;2.29;71.36
48606;BME280;8482;54.396;18.590;2023-02-12T05:43:44;103305.66;;;2.30;71.45
48606;BME280;8482;54.396;18.590;2023-02-12T05:46:11;103310.00;;;2.32;71.43
48606;BME280;8482;54.396;18.590;2023-02-12T05:48:37;103308.25;;;2.32;71.17
48606;BME280;8482;54.396;18.590;2023-02-12T05:51:11;103301.25;;;2.34;71.27
48606;BME280;8482;54.396;18.590;2023-02-12T05:53:38;103305.66;;;2.34;70.80
48606;BME280;8482;54.396;18.590;2023-02-12T05:56:21;103311.75;;;2.36;70.96
48606;BME280;8482;54.396;18.590;2023-02-12T05:58:53;103311.75;;;2.36;70.94
48606;BME280;8482;54.396;18.590;2023-02-12T06:01:23;103312.63;;;2.36;70.90
48606;BME280;8482;54.396;18.590;2023-02-12T06:03:49;103317.84;;;2.36;71.08
48606;BME280;8482;54.396;18.590;2023-02-12T06:06:15;103332.69;;;2.37;70.87
48606;BME280;8482;54.396;18.590;2023-02-12T06:08:41;103324.84;;;2.37;71.02
48606;BME280;8482;54.396;18.590;2023-02-12T06:11:12;103334.47;;;2.34;70.73
48606;BME280;8482;54.396;18.590;2023-02-12T06:13:38;103334.44;;;2.32;70.99
48606;BME280;8482;54.396;18.590;2023-02-12T06:16:05;103344.94;;;2.34;70.97
48606;BME280;8482;54.396;18.590;2023-02-12T06:18:34;103349.31;;;2.35;71.24
48606;BME280;8482;54.396;18.590;2023-02-12T06:21:03;103352.78;;;2.37;70.73
48606;BME280;8482;54.396;18.590;2023-02-12T06:23:29;103358.03;;;2.38;70.88
48606;BME280;8482;54.396;18.590;2023-02-12T06:25:56;103363.25;;;2.41;70.93
48606;BME280;8482;54.396;18.590;2023-02-12T06:28:21;103350.16;;;2.41;71.09
48606;BME280;8482;54.396;18.590;2023-02-12T06:30:47;103366.75;;;2.43;70.82
48606;BME280;8482;54.396;18.590;2023-02-12T06:33:13;103364.13;;;2.45;70.66
48606;BME280;8482;54.396;18.590;2023-02-12T06:35:39;103368.47;;;2.48;70.78
48606;BME280;8482;54.396;18.590;2023-02-12T06:38:05;103373.72;;;2.49;70.73
48606;BME280;8482;54.396;18.590;2023-02-12T06:40:31;103370.22;;;2.50;70.97
48606;BME280;8482;54.396;18.590;2023-02-12T06:42:57;103371.97;;;2.51;70.43
48606;BME280;8482;54.396;18.590;2023-02-12T06:45:24;103372.81;;;2.53;70.61
48606;BME280;8482;54.396;18.590;2023-02-12T06:47:50;103386.78;;;2.55;70.91
48606;BME280;8482;54.396;18.590;2023-02-12T06:50:16;103371.94;;;2.59;70.39
48606;BME280;8482;54.396;18.590;2023-02-12T06:52:42;103372.78;;;2.61;70.48
48606;BME280;8482;54.396;18.590;2023-02-12T06:55:08;103374.53;;;2.62;70.72
48606;BME280;8482;54.396;18.590;2023-02-12T06:57:34;103373.66;;;2.63;70.54
48606;BME280;8482;54.396;18.590;2023-02-12T07:00:00;103372.78;;;2.66;70.32
48606;BME280;8482;54.396;18.590;2023-02-12T07:02:25;103378.91;;;2.66;70.54
48606;BME280;8482;54.396;18.590;2023-02-12T07:04:51;103375.41;;;2.67;70.29
48606;BME280;8482;54.396;18.590;2023-02-12T07:07:17;103372.78;;;2.67;70.89
48606;BME280;8482;54.396;18.590;2023-02-12T07:09:43;103368.41;;;2.69;70.82
48606;BME280;8482;54.396;18.590;2023-02-12T07:12:09;103358.78;;;2.71;70.62
48606;BME280;8482;54.396;18.590;2023-02-12T07:14:35;103361.38;;;2.74;71.13
48606;BME280;8482;54.396;18.590;2023-02-12T07:17:00;103363.13;;;2.79;70.58
48606;BME280;8482;54.396;18.590;2023-02-12T07:19:29;103354.38;;;2.81;70.96
48606;BME280;8482;54.396;18.590;2023-02-12T07:21:55;103353.50;;;2.84;70.13
48606;BME280;8482;54.396;18.590;2023-02-12T07:24:21;103355.22;;;2.89;70.25
48606;BME280;8482;54.396;18.590;2023-02-12T07:26:47;103349.97;;;2.94;70.04
48606;BME280;8482;54.396;18.590;2023-02-12T07:29:13;103353.44;;;2.96;70.08
48606;BME280;8482;54.396;18.590;2023-02-12T07:31:39;103354.31;;;3.00;70.04
48606;BME280;8482;54.396;18.590;2023-02-12T07:34:05;103356.91;;;3.04;70.18
48606;BME280;8482;54.396;18.590;2023-02-12T07:36:32;103356.00;;;3.09;69.92
48606;BME280;8482;54.396;18.590;2023-02-12T07:38:59;103349.88;;;3.10;69.42
48606;BME280;8482;54.396;18.590;2023-02-12T07:41:32;103348.97;;;3.17;70.05
48606;BME280;8482;54.396;18.590;2023-02-12T07:44:05;103349.81;;;3.22;69.91
48606;BME280;8482;54.396;18.590;2023-02-12T07:46:47;103347.16;;;3.27;69.96
48606;BME280;8482;54.396;18.590;2023-02-12T07:49:20;103350.63;;;3.30;69.04
48606;BME280;8482;54.396;18.590;2023-02-12T07:51:47;103349.72;;;3.36;69.69
48606;BME280;8482;54.396;18.590;2023-02-12T07:54:14;103350.56;;;3.41;69.34
48606;BME280;8482;54.396;18.590;2023-02-12T07:56:42;103343.53;;;3.45;69.05
48606;BME280;8482;54.396;18.590;2023-02-12T07:59:14;103342.63;;;3.47;69.41
48606;BME280;8482;54.396;18.590;2023-02-12T08:01:52;103341.72;;;3.53;69.04
48606;BME280;8482;54.396;18.590;2023-02-12T08:04:21;103343.44;;;3.57;68.82
48606;BME280;8482;54.396;18.590;2023-02-12T08:06:51;103348.63;;;3.65;69.43
48606;BME280;8482;54.396;18.590;2023-02-12T08:09:25;103346.84;;;3.68;68.55
48606;BME280;8482;54.396;18.590;2023-02-12T08:11:52;103341.56;;;3.75;68.47
48606;BME280;8482;54.396;18.590;2023-02-12T08:14:21;103349.41;;;3.76;68.19
48606;BME280;8482;54.396;18.590;2023-02-12T08:16:48;103348.53;;;3.77;68.04
48606;BME280;8482;54.396;18.590;2023-02-12T08:19:15;103354.63;;;3.81;67.98
48606;BME280;8482;54.396;18.590;2023-02-12T08:21:41;103362.50;;;3.82;67.73
48606;BME280;8482;54.396;18.590;2023-02-12T08:24:09;103358.06;;;3.88;67.40
48606;BME280;8482;54.396;18.590;2023-02-12T08:26:38;103363.28;;;3.91;67.97
48606;BME280;8482;54.396;18.590;2023-02-12T08:29:14;103352.78;;;3.94;67.30
48606;BME280;8482;54.396;18.590;2023-02-12T08:31:44;103358.91;;;3.93;67.01
48606;BME280;8482;54.396;18.590;2023-02-12T08:34:26;103350.13;;;3.92;66.40
48606;BME280;8482;54.396;18.590;2023-02-12T08:36:53;103342.25;;;3.95;66.86
48606;BME280;8482;54.396;18.590;2023-02-12T08:39:22;103331.69;;;4.00;67.62
48606;BME280;8482;54.396;18.590;2023-02-12T08:41:49;103331.66;;;4.03;67.12
48606;BME280;8482;54.396;18.590;2023-02-12T08:44:16;103341.22;;;4.12;67.41
48606;BME280;8482;54.396;18.590;2023-02-12T08:46:46;103339.38;;;4.17;67.21
48606;BME280;8482;54.396;18.590;2023-02-12T08:49:19;103338.47;;;4.21;66.76
48606;BME280;8482;54.396;18.590;2023-02-12T08:51:50;103327.97;;;4.23;66.95
48606;BME280;8482;54.396;18.590;2023-02-12T08:54:21;103326.19;;;4.25;66.93
48606;BME280;8482;54.396;18.590;2023-02-12T08:56:47;103333.16;;;4.29;66.59
48606;BME280;8482;54.396;18.590;2023-02-12T08:59:14;103334.88;;;4.33;66.39
48606;BME280;8482;54.396;18.590;2023-02-12T09:01:42;103330.44;;;4.37;66.55
48606;BME280;8482;54.396;18.590;2023-02-12T09:04:18;103339.97;;;4.44;66.59
48606;BME280;8482;54.396;18.590;2023-02-12T09:06:46;103337.31;;;4.47;66.65
48606;BME280;8482;54.396;18.590;2023-02-12T09:09:13;103339.03;;;4.51;66.50
48606;BME280;8482;54.396;18.590;2023-02-12T09:11:40;103332.88;;;4.55;66.61
48606;BME280;8482;54.396;18.590;2023-02-12T09:14:11;103330.19;;;4.58;66.24
48606;BME280;8482;54.396;18.590;2023-02-12T09:16:37;103325.81;;;4.59;65.87
48606;BME280;8482;54.396;18.590;2023-02-12T09:19:05;103324.88;;;4.62;66.05
48606;BME280;8482;54.396;18.590;2023-02-12T09:21:32;103318.81;;;4.58;66.01
48606;BME280;8482;54.396;18.590;2023-02-12T09:23:58;103321.41;;;4.59;66.08
48606;BME280;8482;54.396;18.590;2023-02-12T09:26:25;103328.38;;;4.64;66.16
48606;BME280;8482;54.396;18.590;2023-02-12T09:28:51;103323.94;;;4.67;66.21
48606;BME280;8482;54.396;18.590;2023-02-12T09:31:29;103335.28;;;4.72;65.46
48606;BME280;8482;54.396;18.590;2023-02-12T09:34:04;103344.84;;;4.78;66.03
48606;BME280;8482;54.396;18.590;2023-02-12T09:36:32;103329.91;;;4.82;65.71
48606;BME280;8482;54.396;18.590;2023-02-12T09:38:59;103324.56;;;4.86;65.27
48606;BME280;8482;54.396;18.590;2023-02-12T09:53:00;103304.72;;;5.26;65.56
48606;BME280;8482;54.396;18.590;2023-02-12T09:55:33;103306.38;;;5.30;64.51
48606;BME280;8482;54.396;18.590;2023-02-12T09:58:03;103313.41;;;5.31;64.28
48606;BME280;8482;54.396;18.590;2023-02-12T10:00:34;103305.50;;;5.33;63.86
48606;BME280;8482;54.396;18.590;2023-02-12T10:03:04;103308.13;;;5.33;63.93
48606;BME280;8482;54.396;18.590;2023-02-12T10:05:55;103305.47;;;5.34;64.58
48606;BME280;8482;54.396;18.590;2023-02-12T10:11:59;103301.78;;;5.46;64.43
48606;BME280;8482;54.396;18.590;2023-02-12T10:20:42;103295.34;;;5.63;64.10
48606;BME280;8482;54.396;18.590;2023-02-12T10:26:18;103275.94;;;5.68;63.45
48606;BME280;8482;54.396;18.590;2023-02-12T10:28:47;103268.84;;;5.72;63.45
48606;BME280;8482;54.396;18.590;2023-02-12T10:31:33;103270.47;;;5.79;63.67
48606;BME280;8482;54.396;18.590;2023-02-12T10:34:20;103258.94;;;5.85;63.73
48606;BME280;8482;54.396;18.590;2023-02-12T10:36:49;103264.13;;;5.91;63.54
48606;BME280;8482;54.396;18.590;2023-02-12T10:39:25;103257.00;;;5.95;63.42
48606;BME280;8482;54.396;18.590;2023-02-12T10:42:15;103253.44;;;6.01;63.29
48606;BME280;8482;54.396;18.590;2023-02-12T10:44:42;103249.84;;;6.03;63.04
48606;BME280;8482;54.396;18.590;2023-02-12T10:47:19;103241.94;;;6.05;62.90
48606;BME280;8482;54.396;18.590;2023-02-12T10:50:00;103244.44;;;6.11;62.71
48606;BME280;8482;54.396;18.590;2023-02-12T10:52:48;103241.69;;;6.17;62.92
48606;BME280;8482;54.396;18.590;2023-02-12T10:55:33;103242.44;;;6.24;63.37
48606;BME280;8482;54.396;18.590;2023-02-12T10:58:02;103237.91;;;6.29;63.16
48606;BME280;8482;54.396;18.590;2023-02-12T11:05:41;103241.06;;;6.47;62.67
48606;BME280;8482;54.396;18.590;2023-02-12T11:08:43;103245.31;;;6.54;62.13
48606;BME280;8482;54.396;18.590;2023-02-12T11:14:04;103224.88;;;6.64;62.62
48606;BME280;8482;54.396;18.590;2023-02-12T11:16:45;103230.03;;;6.68;62.46
48606;BME280;8482;54.396;18.590;2023-02-12T11:19:25;103219.34;;;6.74;61.87
48606;BME280;8482;54.396;18.590;2023-02-12T11:22:13;103212.13;;;6.83;61.71
48606;BME280;8482;54.396;18.590;2023-02-12T11:24:44;103223.44;;;6.88;61.76
48606;BME280;8482;54.396;18.590;2023-02-12T11:27:12;103232.91;;;6.97;61.48
48606;BME280;8482;54.396;18.590;2023-02-12T11:29:45;103210.84;;;7.01;61.13
48606;BME280;8482;54.396;18.590;2023-02-12T11:32:19;103223.03;;;7.07;61.10
48606;BME280;8482;54.396;18.590;2023-02-12T11:35:18;103218.47;;;7.13;60.87
48606;BME280;8482;54.396;18.590;2023-02-12T11:37:53;103213.91;;;7.18;60.63
48606;BME280;8482;54.396;18.590;2023-02-12T11:42:57;103201.34;;;7.28;60.50
48606;BME280;8482;54.396;18.590;2023-02-12T11:45:36;103195.03;;;7.34;60.26
48606;BME280;8482;54.396;18.590;2023-02-12T11:48:31;103205.22;;;7.48;60.06
48606;BME280;8482;54.396;18.590;2023-02-12T11:51:02;103202.38;;;7.57;60.47
48606;BME280;8482;54.396;18.590;2023-02-12T11:53:34;103196.88;;;7.65;60.19
48606;BME280;8482;54.396;18.590;2023-02-12T11:56:08;103201.97;;;7.71;59.51
48606;BME280;8482;54.396;18.590;2023-02-12T11:58:35;103201.75;;;7.80;59.69
48606;BME280;8482;54.396;18.590;2023-02-12T12:01:33;103219.91;;;7.91;59.42
48606;BME280;8482;54.396;18.590;2023-02-12T12:04:13;103205.66;;;7.97;59.13
48606;BME280;8482;54.396;18.590;2023-02-12T12:06:54;103191.53;;;8.00;59.21
48606;BME280;8482;54.396;18.590;2023-02-12T12:10:32;103218.72;;;8.03;59.19
48606;BME280;8482;54.396;18.590;2023-02-12T12:12:51;103195.06;;;7.98;59.31
48606;BME280;8482;54.396;18.590;2023-02-12T12:15:29;103174.84;;;7.97;59.09
48606;BME280;8482;54.396;18.590;2023-02-12T12:21:35;103180.28;;;7.91;60.16
48606;BME280;8482;54.396;18.590;2023-02-12T12:27:09;103178.06;;;7.76;60.64
48606;BME280;8482;54.396;18.590;2023-02-12T12:29:59;103172.16;;;7.67;61.44
48606;BME280;8482;54.396;18.590;2023-02-12T12:32:35;103167.06;;;7.60;61.36
48606;BME280;8482;54.396;18.590;2023-02-12T12:35:02;103162.03;;;7.50;62.11
48606;BME280;8482;54.396;18.590;2023-02-12T12:37:44;103157.81;;;7.45;62.05
48606;BME280;8482;54.396;18.590;2023-02-12T12:40:52;103145.72;;;7.36;62.64
48606;BME280;8482;54.396;18.590;2023-02-12T12:46:48;103150.09;;;7.35;63.34
48606;BME280;8482;54.396;18.590;2023-02-12T12:53:02;103130.91;;;7.30;63.66
48606;BME280;8482;54.396;18.590;2023-02-12T12:55:58;103134.56;;;7.25;63.38
48606;BME280;8482;54.396;18.590;2023-02-12T13:16:23;103158.13;;;6.98;65.45
48606;BME280;8482;54.396;18.590;2023-02-12T13:19:33;103165.34;;;6.91;66.24
48606;BME280;8482;54.396;18.590;2023-02-12T13:22:33;103160.25;;;6.82;66.37
48606;BME280;8482;54.396;18.590;2023-02-12T13:25:48;103176.31;;;6.72;66.48
48606;BME280;8482;54.396;18.590;2023-02-12T13:28:45;103171.31;;;6.62;67.03
48606;BME280;8482;54.396;18.590;2023-02-12T13:31:18;103174.09;;;6.55;67.17
48606;BME280;8482;54.396;18.590;2023-02-12T13:33:57;103165.38;;;6.52;67.81
48606;BME280;8482;54.396;18.590;2023-02-12T13:36:24;103158.38;;;6.49;68.48
48606;BME280;8482;54.396;18.590;2023-02-12T13:44:56;103167.53;;;6.34;68.79
48606;BME280;8482;54.396;18.590;2023-02-12T13:48:22;103158.88;;;6.27;68.75
48606;BME280;8482;54.396;18.590;2023-02-12T13:56:50;103152.44;;;5.98;70.26
48606;BME280;8482;54.396;18.590;2023-02-12T14:02:25;103155.16;;;5.94;70.73
48606;BME280;8482;54.396;18.590;2023-02-12T14:07:18;103136.94;;;5.85;71.31
48606;BME280;8482;54.396;18.590;2023-02-12T14:10:05;103151.88;;;5.82;71.84
48606;BME280;8482;54.396;18.590;2023-02-12T14:12:36;103146.72;;;5.78;72.09
48606;BME280;8482;54.396;18.590;2023-02-12T14:15:27;103146.81;;;5.73;72.23
48606;BME280;8482;54.396;18.590;2023-02-12T14:18:05;103145.13;;;5.69;72.52
48606;BME280;8482;54.396;18.590;2023-02-12T14:20:34;103150.44;;;5.66;73.37
48606;BME280;8482;54.396;18.590;2023-02-12T14:23:19;103150.44;;;5.66;73.42
48606;BME280;8482;54.396;18.590;2023-02-12T14:26:11;103146.91;;;5.67;73.86
48606;BME280;8482;54.396;18.590;2023-02-12T14:28:56;103133.75;;;5.67;74.05
48606;BME280;8482;54.396;18.590;2023-02-12T14:36:45;103144.00;;;5.82;74.45
48606;BME280;8482;54.396;18.590;2023-02-12T14:44:59;103153.38;;;5.96;74.29
48606;BME280;8482;54.396;18.590;2023-02-12T14:50:22;103161.28;;;5.96;74.67
48606;BME280;8482;54.396;18.590;2023-02-12T14:52:58;103169.19;;;5.96;75.06
48606;BME280;8482;54.396;18.590;2023-02-12T14:55:32;103160.47;;;5.92;75.04
48606;BME280;8482;54.396;18.590;2023-02-12T14:58:04;103161.28;;;5.96;75.51
48606;BME280;8482;54.396;18.590;2023-02-12T15:00:38;103165.66;;;5.97;75.76
48606;BME280;8482;54.396;18.590;2023-02-12T15:03:26;103158.59;;;5.99;75.48
48606;BME280;8482;54.396;18.590;2023-02-12T15:09:54;103155.94;;;5.99;75.58
48606;BME280;8482;54.396;18.590;2023-02-12T15:12:06;103144.53;;;5.98;75.55
48606;BME280;8482;54.396;18.590;2023-02-12T15:14:39;103139.31;;;5.97;75.97
48606;BME280;8482;54.396;18.590;2023-02-12T15:17:26;103127.03;;;5.96;76.16
48606;BME280;8482;54.396;18.590;2023-02-12T15:20:24;103133.19;;;5.95;76.59
48606;BME280;8482;54.396;18.590;2023-02-12T15:22:52;103124.44;;;5.93;76.73
48606;BME280;8482;54.396;18.590;2023-02-12T15:25:30;103127.91;;;5.95;76.54
48606;BME280;8482;54.396;18.590;2023-02-12T15:28:34;103149.00;;;5.95;77.30
48606;BME280;8482;54.396;18.590;2023-02-12T15:31:04;103142.88;;;5.94;77.10
48606;BME280;8482;54.396;18.590;2023-02-12T15:33:39;103129.63;;;5.97;77.37
48606;BME280;8482;54.396;18.590;2023-02-12T15:36:09;103122.59;;;5.98;77.18
48606;BME280;8482;54.396;18.590;2023-02-12T15:38:39;103120.84;;;5.97;77.75
48606;BME280;8482;54.396;18.590;2023-02-12T15:41:07;103118.28;;;5.95;77.12
48606;BME280;8482;54.396;18.590;2023-02-12T15:43:39;103105.88;;;5.99;77.11
48606;BME280;8482;54.396;18.590;2023-02-12T15:46:15;103105.88;;;5.99;77.72
48606;BME280;8482;54.396;18.590;2023-02-12T15:48:41;103097.13;;;6.00;77.69